Terminal Aerodrome Forecast
Issued by NWS Corpus Christi, TX

Home | Current Version | Previous Version | Text Only | Print | Product List | Glossary On
Versions: 1 2 3 4 5 6 7 8 9 10 11 12 13 14 15 16
000
FTUS44 KCRP 020600 AAA
TAFVCT
TAF AMD
KVCT 020616Z 0206/0306 04003KT P6SM VCSH BKN025 BKN040
      TEMPO 0206/0209 SCT025
     FM021000 02005KT P6SM BKN030
     FM021500 01010KT P6SM SCT050=

USA.gov is the U.S. government's official web portal to all federal, state and local government web resources and services.